Time,TemperatureF,DewpointF,PressureIn,WindDirection,WindDirectionDegrees,WindSpeedMPH,WindSpeedGustMPH,Humidity,HourlyPrecipIn,Conditions,Clouds,dailyrainin,SoftwareType,DateUTC
2013-04-06 00:02:00,34.0,25.2,30.09,SW,225,1.0,2.0,70,0.00,,,0.00,meteohub,2013-04-06 07:02:00,
2013-04-06 00:07:00,33.8,25.0,30.09,SW,225,2.0,2.0,70,0.00,,,0.00,meteohub,2013-04-06 07:07:00,
2013-04-06 00:12:00,34.2,25.0,30.09,SW,225,2.0,2.0,69,0.00,,,0.00,meteohub,2013-04-06 07:12:00,
2013-04-06 00:17:00,33.8,24.1,30.09,East,90,3.0,3.0,67,0.00,,,0.00,meteohub,2013-04-06 07:17:00,
2013-04-06 00:22:00,34.0,23.9,30.09,East,90,0.0,3.0,66,0.00,,,0.00,meteohub,2013-04-06 07:22:00,
2013-04-06 00:27:00,34.0,24.3,30.09,East,90,2.0,3.0,67,0.00,,,0.00,meteohub,2013-04-06 07:27:00,
2013-04-06 00:32:00,34.2,24.1,30.09,East,90,0.0,3.0,66,0.00,,,0.00,meteohub,2013-04-06 07:32:00,
2013-04-06 00:37:00,34.0,23.5,30.09,East,90,0.0,2.0,65,0.00,,,0.00,meteohub,2013-04-06 07:37:00,
2013-04-06 00:42:00,33.6,22.8,30.09,East,90,2.0,2.0,64,0.00,,,0.00,meteohub,2013-04-06 07:42:00,
2013-04-06 00:47:00,33.4,22.6,30.09,North,0,1.0,3.0,64,0.00,,,0.00,meteohub,2013-04-06 07:47:00,
2013-04-06 00:53:00,33.1,21.9,30.09,North,-999,-999.0,3.0,63,0.00,,,0.00,meteohub,2013-04-06 07:53:00,
2013-04-06 00:58:00,32.9,21.7,30.08,North,-999,-999.0,3.0,63,0.00,,,0.00,meteohub,2013-04-06 07:58:00,
2013-04-06 01:03:00,33.1,21.9,30.09,North,-999,-999.0,-999.0,63,0.00,,,0.00,meteohub,2013-04-06 08:03:00,
2013-04-06 01:08:00,32.5,21.4,30.09,North,-999,-999.0,-999.0,63,0.00,,,0.00,meteohub,2013-04-06 08:08:00,
2013-04-06 01:13:00,32.2,21.0,30.09,North,-999,-999.0,-999.0,63,0.00,,,0.00,meteohub,2013-04-06 08:13:00,
2013-04-06 01:18:00,32.0,20.8,30.10,North,-999,-999.0,-999.0,63,0.00,,,0.00,meteohub,2013-04-06 08:18:00,
2013-04-06 01:23:00,32.2,21.0,30.09,North,-999,-999.0,-999.0,63,0.00,,,0.00,meteohub,2013-04-06 08:23:00,
2013-04-06 01:28:00,32.2,21.0,30.09,South,180,1.0,1.0,63,0.00,,,0.00,meteohub,2013-04-06 08:28:00,
2013-04-06 01:33:00,32.2,21.0,30.09,South,180,2.0,2.0,63,0.00,,,0.00,meteohub,2013-04-06 08:33:00,
2013-04-06 01:38:00,32.4,21.2,30.09,SSE,158,1.0,2.0,63,0.00,,,0.00,meteohub,2013-04-06 08:38:00,
2013-04-06 01:43:00,32.4,20.8,30.09,SSE,158,1.0,2.0,62,0.00,,,0.00,meteohub,2013-04-06 08:43:00,
2013-04-06 01:48:00,32.7,21.2,30.09,SSE,158,2.0,2.0,62,0.00,,,0.00,meteohub,2013-04-06 08:48:00,
2013-04-06 01:53:00,32.9,21.4,30.09,South,180,2.0,2.0,62,0.00,,,0.00,meteohub,2013-04-06 08:53:00,
2013-04-06 01:58:00,32.9,20.8,30.09,South,180,2.0,4.0,61,0.00,,,0.00,meteohub,2013-04-06 08:58:00,
2013-04-06 02:03:00,32.4,19.9,30.09,South,180,1.0,4.0,60,0.00,,,0.00,meteohub,2013-04-06 09:03:00,
2013-04-06 02:08:00,32.2,20.3,30.09,South,180,1.0,4.0,61,0.00,,,0.00,meteohub,2013-04-06 09:08:00,
2013-04-06 02:13:00,31.8,19.6,30.08,South,180,1.0,3.0,60,0.00,,,0.00,meteohub,2013-04-06 09:13:00,
2013-04-06 02:18:00,31.5,19.6,30.07,South,180,2.0,2.0,61,0.00,,,0.00,meteohub,2013-04-06 09:18:00,
2013-04-06 02:23:00,31.6,19.8,30.08,South,180,0.0,2.0,61,0.00,,,0.00,meteohub,2013-04-06 09:23:00,
2013-04-06 02:28:00,31.6,19.4,30.08,South,180,2.0,2.0,60,0.00,,,0.00,meteohub,2013-04-06 09:28:00,
2013-04-06 02:33:00,31.6,19.8,30.08,South,180,1.0,2.0,61,0.00,,,0.00,meteohub,2013-04-06 09:33:00,
2013-04-06 02:38:00,31.8,19.9,30.07,South,180,2.0,2.0,61,0.00,,,0.00,meteohub,2013-04-06 09:38:00,
2013-04-06 02:43:00,32.2,19.9,30.08,South,180,2.0,2.0,60,0.00,,,0.00,meteohub,2013-04-06 09:43:00,
2013-04-06 02:48:00,32.5,20.1,30.08,South,180,2.0,2.0,60,0.00,,,0.00,meteohub,2013-04-06 09:48:00,
2013-04-06 02:53:00,32.7,19.9,30.08,South,180,1.0,2.0,59,0.00,,,0.00,meteohub,2013-04-06 09:53:00,
2013-04-06 02:58:00,33.3,20.1,30.08,South,180,1.0,2.0,58,0.00,,,0.00,meteohub,2013-04-06 09:58:00,
2013-04-06 03:03:00,33.8,20.1,30.08,South,180,2.0,3.0,57,0.00,,,0.00,meteohub,2013-04-06 10:03:00,
2013-04-06 03:09:00,34.2,20.5,30.07,South,180,2.0,3.0,57,0.00,,,0.00,meteohub,2013-04-06 10:09:00,
2013-04-06 03:14:00,34.3,20.3,30.07,South,180,1.0,2.0,56,0.00,,,0.00,meteohub,2013-04-06 10:14:00,
2013-04-06 03:19:00,34.5,20.5,30.07,South,180,2.0,2.0,56,0.00,,,0.00,meteohub,2013-04-06 10:19:00,
2013-04-06 03:24:00,34.5,19.9,30.07,South,180,1.0,2.0,55,0.00,,,0.00,meteohub,2013-04-06 10:24:00,
2013-04-06 03:29:00,34.5,19.9,30.07,South,180,2.0,3.0,55,0.00,,,0.00,meteohub,2013-04-06 10:29:00,
2013-04-06 03:34:00,34.5,19.9,30.07,South,180,2.0,3.0,55,0.00,,,0.00,meteohub,2013-04-06 10:34:00,
2013-04-06 03:39:00,34.5,19.9,30.07,South,180,2.0,3.0,55,0.00,,,0.00,meteohub,2013-04-06 10:39:00,
2013-04-06 03:44:00,34.5,19.9,30.07,South,180,1.0,2.0,55,0.00,,,0.00,meteohub,2013-04-06 10:44:00,
2013-04-06 03:49:00,34.2,19.8,30.07,South,180,2.0,2.0,55,0.00,,,0.00,meteohub,2013-04-06 10:49:00,
2013-04-06 03:54:00,34.2,20.1,30.07,South,180,2.0,2.0,56,0.00,,,0.00,meteohub,2013-04-06 10:54:00,
2013-04-06 03:59:00,34.2,20.1,30.07,South,180,1.0,2.0,56,0.00,,,0.00,meteohub,2013-04-06 10:59:00,
2013-04-06 04:04:00,34.0,19.6,30.07,South,180,2.0,2.0,55,0.00,,,0.00,meteohub,2013-04-06 11:04:00,
2013-04-06 04:10:00,33.8,19.4,30.07,South,180,3.0,3.0,55,0.00,,,0.00,meteohub,2013-04-06 11:10:00,
2013-04-06 04:15:00,33.8,18.9,30.07,SE,135,4.0,4.0,54,0.00,,,0.00,meteohub,2013-04-06 11:15:00,
2013-04-06 04:20:00,34.3,19.0,30.07,SE,135,2.0,4.0,53,0.00,,,0.00,meteohub,2013-04-06 11:20:00,
2013-04-06 04:25:00,34.5,19.6,30.07,SE,135,2.0,4.0,54,0.00,,,0.00,meteohub,2013-04-06 11:25:00,
2013-04-06 04:30:00,34.3,19.4,30.07,SE,135,1.0,4.0,54,0.00,,,0.00,meteohub,2013-04-06 11:30:00,
2013-04-06 04:35:00,34.2,19.2,30.06,SE,135,2.0,4.0,54,0.00,,,0.00,meteohub,2013-04-06 11:35:00,
2013-04-06 04:40:00,34.0,19.0,30.06,SE,135,2.0,2.0,54,0.00,,,0.00,meteohub,2013-04-06 11:40:00,
2013-04-06 04:45:00,33.8,18.9,30.06,SE,135,2.0,2.0,54,0.00,,,0.00,meteohub,2013-04-06 11:45:00,
2013-04-06 04:50:00,34.0,19.0,30.06,SE,135,1.0,2.0,54,0.00,,,0.00,meteohub,2013-04-06 11:50:00,
2013-04-06 04:55:00,33.6,18.7,30.07,SE,135,2.0,2.0,54,0.00,,,0.00,meteohub,2013-04-06 11:55:00,
2013-04-06 05:00:00,34.0,18.1,30.07,SE,135,2.0,3.0,52,0.00,,,0.00,meteohub,2013-04-06 12:00:00,
2013-04-06 05:05:00,34.3,18.5,30.07,South,180,4.0,4.0,52,0.00,,,0.00,meteohub,2013-04-06 12:05:00,
2013-04-06 05:10:00,34.7,18.5,30.07,SW,225,2.0,4.0,51,0.00,,,0.00,meteohub,2013-04-06 12:10:00,
2013-04-06 05:15:00,34.7,18.0,30.07,SW,225,2.0,4.0,50,0.00,,,0.00,meteohub,2013-04-06 12:15:00,
2013-04-06 05:20:00,34.7,18.0,30.06,SW,225,2.0,4.0,50,0.00,,,0.00,meteohub,2013-04-06 12:20:00,
2013-04-06 05:25:00,34.7,18.0,30.07,SW,225,1.0,4.0,50,0.00,,,0.00,meteohub,2013-04-06 12:25:00,
2013-04-06 05:30:00,34.3,17.6,30.07,SW,225,2.0,2.0,50,0.00,,,0.00,meteohub,2013-04-06 12:30:00,
2013-04-06 05:35:00,33.8,17.6,30.07,SW,225,2.0,2.0,51,0.00,,,0.00,meteohub,2013-04-06 12:35:00,
2013-04-06 05:40:00,33.6,17.8,30.07,SW,225,2.0,2.0,52,0.00,,,0.00,meteohub,2013-04-06 12:40:00,
2013-04-06 05:45:00,33.6,17.4,30.07,East,90,3.0,3.0,51,0.00,,,0.00,meteohub,2013-04-06 12:45:00,
2013-04-06 05:50:00,33.3,17.6,30.07,East,90,1.0,2.0,52,0.00,,,0.00,meteohub,2013-04-06 12:50:00,
2013-04-06 05:56:00,33.1,17.8,30.07,SE,135,2.0,3.0,53,0.00,,,0.00,meteohub,2013-04-06 12:56:00,
2013-04-06 06:01:00,32.9,17.6,30.07,SE,135,2.0,3.0,53,0.00,,,0.00,meteohub,2013-04-06 13:01:00,
2013-04-06 06:06:00,33.1,18.3,30.07,SW,225,3.0,3.0,54,0.00,,,0.00,meteohub,2013-04-06 13:06:00,
2013-04-06 06:11:00,33.1,17.8,30.07,East,90,2.0,3.0,53,0.00,,,0.00,meteohub,2013-04-06 13:11:00,
2013-04-06 06:17:00,32.5,17.8,30.07,East,90,1.0,3.0,54,0.00,,,0.00,meteohub,2013-04-06 13:17:00,
2013-04-06 06:22:00,32.7,18.0,30.07,East,90,0.0,3.0,54,0.00,,,0.00,meteohub,2013-04-06 13:22:00,
2013-04-06 06:27:00,32.4,18.0,30.07,East,90,1.0,3.0,55,0.00,,,0.00,meteohub,2013-04-06 13:27:00,
2013-04-06 06:32:00,32.4,18.0,30.08,East,90,1.0,2.0,55,0.00,,,0.00,meteohub,2013-04-06 13:32:00,
2013-04-06 06:37:00,32.2,17.8,30.09,East,90,3.0,3.0,55,0.00,,,0.00,meteohub,2013-04-06 13:37:00,
2013-04-06 06:42:00,32.2,18.3,30.09,South,180,2.0,3.0,56,0.00,,,0.00,meteohub,2013-04-06 13:42:00,
2013-04-06 06:47:00,32.5,18.5,30.09,South,180,1.0,3.0,56,0.00,,,0.00,meteohub,2013-04-06 13:47:00,
2013-04-06 06:53:00,32.9,18.9,30.09,South,180,2.0,4.0,56,0.00,,,0.00,meteohub,2013-04-06 13:53:00,
2013-04-06 06:58:00,33.6,19.2,30.09,South,180,2.0,4.0,55,0.00,,,0.00,meteohub,2013-04-06 13:58:00,
2013-04-06 07:03:00,34.3,19.8,30.09,South,180,1.0,4.0,55,0.00,,,0.00,meteohub,2013-04-06 14:03:00,
2013-04-06 07:08:00,36.1,21.0,30.09,South,180,2.0,3.0,54,0.00,,,0.00,meteohub,2013-04-06 14:08:00,
2013-04-06 07:20:00,39.6,23.0,30.09,East,90,0.0,4.0,51,0.00,,,0.00,meteohub,2013-04-06 14:20:00,
2013-04-06 07:25:00,40.3,23.2,30.09,East,90,2.0,3.0,50,0.00,,,0.00,meteohub,2013-04-06 14:25:00,
2013-04-06 07:30:00,40.8,23.2,30.10,South,180,2.0,2.0,49,0.00,,,0.00,meteohub,2013-04-06 14:30:00,
2013-04-06 07:35:00,41.7,24.4,30.10,South,180,1.0,2.0,50,0.00,,,0.00,meteohub,2013-04-06 14:35:00,
2013-04-06 07:40:00,42.3,24.4,30.10,South,180,2.0,2.0,49,0.00,,,0.00,meteohub,2013-04-06 14:40:00,
2013-04-06 07:45:00,43.2,25.3,30.11,South,180,1.0,2.0,49,0.00,,,0.00,meteohub,2013-04-06 14:45:00,
2013-04-06 07:51:00,43.9,25.0,30.11,South,180,2.0,2.0,47,0.00,,,0.00,meteohub,2013-04-06 14:51:00,
2013-04-06 07:56:00,44.6,24.6,30.11,SW,225,2.0,2.0,45,0.00,,,0.00,meteohub,2013-04-06 14:56:00,
2013-04-06 08:01:00,45.5,24.3,30.10,South,180,4.0,4.0,43,0.00,,,0.00,meteohub,2013-04-06 15:01:00,
2013-04-06 08:06:00,46.4,23.9,30.11,SW,225,2.0,4.0,41,0.00,,,0.00,meteohub,2013-04-06 15:06:00,
2013-04-06 08:12:00,47.1,24.1,30.11,SW,225,2.0,4.0,40,0.00,,,0.00,meteohub,2013-04-06 15:12:00,
2013-04-06 08:17:00,47.7,23.9,30.11,SW,225,2.0,4.0,39,0.00,,,0.00,meteohub,2013-04-06 15:17:00,
2013-04-06 08:22:00,48.4,24.6,30.10,East,90,2.0,2.0,39,0.00,,,0.00,meteohub,2013-04-06 15:22:00,
2013-04-06 08:27:00,48.9,24.4,30.11,SW,225,2.0,2.0,38,0.00,,,0.00,meteohub,2013-04-06 15:27:00,
2013-04-06 08:32:00,49.8,24.6,30.11,East,90,2.0,2.0,37,0.00,,,0.00,meteohub,2013-04-06 15:32:00,
2013-04-06 08:37:00,50.7,24.8,30.11,East,90,2.0,4.0,36,0.00,,,0.00,meteohub,2013-04-06 15:37:00,
2013-04-06 08:42:00,51.3,24.6,30.11,East,90,2.0,4.0,35,0.00,,,0.00,meteohub,2013-04-06 15:42:00,
2013-04-06 08:47:00,51.8,25.0,30.11,East,90,2.0,3.0,35,0.00,,,0.00,meteohub,2013-04-06 15:47:00,
2013-04-06 08:52:00,52.3,25.5,30.11,SW,225,2.0,2.0,35,0.00,,,0.00,meteohub,2013-04-06 15:52:00,
2013-04-06 08:57:00,52.9,25.9,30.11,SW,225,2.0,4.0,35,0.00,,,0.00,meteohub,2013-04-06 15:57:00,
2013-04-06 09:02:00,53.6,25.2,30.11,SW,225,2.0,4.0,33,0.00,,,0.00,meteohub,2013-04-06 16:02:00,
2013-04-06 09:07:00,54.1,25.7,30.11,SW,225,2.0,3.0,33,0.00,,,0.00,meteohub,2013-04-06 16:07:00,
2013-04-06 09:12:00,54.7,24.6,30.11,SW,225,3.0,3.0,31,0.00,,,0.00,meteohub,2013-04-06 16:12:00,
2013-04-06 09:17:00,54.9,24.1,30.11,North,0,2.0,4.0,30,0.00,,,0.00,meteohub,2013-04-06 16:17:00,
2013-04-06 09:22:00,55.2,24.3,30.11,North,0,3.0,4.0,30,0.00,,,0.00,meteohub,2013-04-06 16:22:00,
2013-04-06 09:28:00,55.8,24.8,30.11,North,-999,-999.0,4.0,30,0.00,,,0.00,meteohub,2013-04-06 16:28:00,
2013-04-06 09:32:00,56.5,24.6,30.11,North,0,3.0,4.0,29,0.00,,,0.00,meteohub,2013-04-06 16:32:00,
2013-04-06 09:37:00,56.8,25.0,30.11,SW,225,2.0,3.0,29,0.00,,,0.00,meteohub,2013-04-06 16:37:00,
2013-04-06 09:43:00,57.2,24.4,30.11,North,0,3.0,3.0,28,0.00,,,0.00,meteohub,2013-04-06 16:43:00,
2013-04-06 09:48:00,57.9,25.0,30.11,North,0,2.0,3.0,28,0.00,,,0.00,meteohub,2013-04-06 16:48:00,
2013-04-06 09:53:00,58.1,25.2,30.11,West,270,2.0,4.0,28,0.00,,,0.00,meteohub,2013-04-06 16:53:00,
2013-04-06 09:58:00,58.5,24.6,30.11,South,180,2.0,4.0,27,0.00,,,0.00,meteohub,2013-04-06 16:58:00,
2013-04-06 10:03:00,59.2,26.1,30.11,South,180,2.0,4.0,28,0.00,,,0.00,meteohub,2013-04-06 17:03:00,
2013-04-06 10:08:00,60.1,25.2,30.11,NW,315,5.0,5.0,26,0.00,,,0.00,meteohub,2013-04-06 17:08:00,
2013-04-06 10:13:00,60.6,25.5,30.11,SW,225,3.0,5.0,26,0.00,,,0.00,meteohub,2013-04-06 17:13:00,
2013-04-06 10:18:00,61.0,25.9,30.11,West,270,2.0,5.0,26,0.00,,,0.00,meteohub,2013-04-06 17:18:00,
2013-04-06 10:23:00,61.2,26.1,30.11,West,270,2.0,5.0,26,0.00,,,0.00,meteohub,2013-04-06 17:23:00,
2013-04-06 10:28:00,61.5,26.2,30.12,SW,225,2.0,4.0,26,0.00,,,0.00,meteohub,2013-04-06 17:28:00,
2013-04-06 10:33:00,62.1,25.9,30.11,West,270,3.0,4.0,25,0.00,,,0.00,meteohub,2013-04-06 17:33:00,
2013-04-06 10:38:00,62.2,25.0,30.12,West,270,7.0,7.0,24,0.00,,,0.00,meteohub,2013-04-06 17:38:00,
2013-04-06 10:43:00,62.4,25.2,30.11,West,270,4.0,8.0,24,0.00,,,0.00,meteohub,2013-04-06 17:43:00,
2013-04-06 10:48:00,61.9,24.6,30.12,West,270,4.0,10.0,24,0.00,,,0.00,meteohub,2013-04-06 17:48:00,
2013-04-06 10:53:00,62.2,25.0,30.11,West,270,3.0,10.0,24,0.00,,,0.00,meteohub,2013-04-06 17:53:00,
2013-04-06 10:58:00,62.4,25.2,30.11,West,270,4.0,10.0,24,0.00,,,0.00,meteohub,2013-04-06 17:58:00,
2013-04-06 11:04:00,62.4,24.1,30.12,West,270,4.0,8.0,23,0.00,,,0.00,meteohub,2013-04-06 18:04:00,
2013-04-06 11:09:00,62.6,25.3,30.12,West,270,4.0,5.0,24,0.00,,,0.00,meteohub,2013-04-06 18:09:00,
2013-04-06 11:14:00,63.0,25.5,30.12,West,270,3.0,5.0,24,0.00,,,0.00,meteohub,2013-04-06 18:14:00,
2013-04-06 11:19:00,63.0,26.6,30.12,West,270,3.0,5.0,25,0.00,,,0.00,meteohub,2013-04-06 18:19:00,
2013-04-06 11:24:00,63.3,27.0,30.12,SSE,158,4.0,4.0,25,0.00,,,0.00,meteohub,2013-04-06 18:24:00,
2013-04-06 11:29:00,62.8,26.4,30.12,West,270,5.0,5.0,25,0.00,,,0.00,meteohub,2013-04-06 18:29:00,
2013-04-06 11:34:00,62.1,26.8,30.12,West,270,4.0,8.0,26,0.00,,,0.00,meteohub,2013-04-06 18:34:00,
2013-04-06 11:42:00,62.4,27.1,30.11,West,270,5.0,8.0,26,0.00,,,0.00,meteohub,2013-04-06 18:42:00,
2013-04-06 11:47:00,62.8,27.3,30.12,West,270,4.0,6.0,26,0.00,,,0.00,meteohub,2013-04-06 18:47:00,
2013-04-06 11:52:00,63.0,27.5,30.12,West,270,4.0,7.0,26,0.00,,,0.00,meteohub,2013-04-06 18:52:00,
2013-04-06 11:57:00,62.8,27.3,30.12,West,270,9.0,9.0,26,0.00,,,0.00,meteohub,2013-04-06 18:57:00,
2013-04-06 12:02:00,62.1,26.8,30.12,West,270,6.0,9.0,26,0.00,,,0.00,meteohub,2013-04-06 19:02:00,
2013-04-06 12:07:00,62.1,27.7,30.11,West,270,4.0,9.0,27,0.00,,,0.00,meteohub,2013-04-06 19:07:00,
2013-04-06 12:12:00,62.4,28.0,30.11,SW,225,3.0,9.0,27,0.00,,,0.00,meteohub,2013-04-06 19:12:00,
2013-04-06 12:17:00,62.8,28.2,30.12,West,270,4.0,6.0,27,0.00,,,0.00,meteohub,2013-04-06 19:17:00,
2013-04-06 12:22:00,62.6,28.2,30.12,SE,135,4.0,6.0,27,0.00,,,0.00,meteohub,2013-04-06 19:22:00,
2013-04-06 12:27:00,63.5,28.9,30.11,West,270,4.0,6.0,27,0.00,,,0.00,meteohub,2013-04-06 19:27:00,
2013-04-06 12:32:00,62.6,28.2,30.11,West,270,3.0,6.0,27,0.00,,,0.00,meteohub,2013-04-06 19:32:00,
2013-04-06 12:37:00,61.7,27.3,30.11,West,270,6.0,6.0,27,0.00,,,0.00,meteohub,2013-04-06 19:37:00,
2013-04-06 12:42:00,61.0,27.7,30.11,West,270,4.0,7.0,28,0.00,,,0.00,meteohub,2013-04-06 19:42:00,
2013-04-06 12:47:00,61.2,27.9,30.11,West,270,3.0,7.0,28,0.00,,,0.00,meteohub,2013-04-06 19:47:00,
2013-04-06 12:52:00,61.0,27.7,30.11,West,270,5.0,7.0,28,0.00,,,0.00,meteohub,2013-04-06 19:52:00,
2013-04-06 12:57:00,61.2,27.9,30.11,West,270,7.0,7.0,28,0.00,,,0.00,meteohub,2013-04-06 19:57:00,
2013-04-06 13:02:00,61.3,27.9,30.10,West,270,6.0,7.0,28,0.00,,,0.00,meteohub,2013-04-06 20:02:00,
2013-04-06 13:08:00,62.1,28.6,30.11,West,270,6.0,7.0,28,0.00,,,0.00,meteohub,2013-04-06 20:08:00,
2013-04-06 13:13:00,62.2,28.8,30.10,NE,45,3.0,7.0,28,0.00,,,0.00,meteohub,2013-04-06 20:13:00,
2013-04-06 13:18:00,62.4,28.9,30.10,West,270,3.0,6.0,28,0.00,,,0.00,meteohub,2013-04-06 20:18:00,
2013-04-06 13:23:00,62.2,28.8,30.10,West,270,4.0,6.0,28,0.00,,,0.00,meteohub,2013-04-06 20:23:00,
2013-04-06 13:28:00,62.1,28.6,30.10,West,270,4.0,6.0,28,0.00,,,0.00,meteohub,2013-04-06 20:28:00,
2013-04-06 13:33:00,61.3,27.9,30.10,West,270,4.0,6.0,28,0.00,,,0.00,meteohub,2013-04-06 20:33:00,
2013-04-06 13:38:00,60.6,28.2,30.10,West,270,3.0,6.0,29,0.00,,,0.00,meteohub,2013-04-06 20:38:00,
2013-04-06 13:43:00,60.3,27.9,30.10,West,270,4.0,7.0,29,0.00,,,0.00,meteohub,2013-04-06 20:43:00,
2013-04-06 13:48:00,59.9,27.5,30.10,West,270,3.0,7.0,29,0.00,,,0.00,meteohub,2013-04-06 20:48:00,
2013-04-06 13:53:00,59.9,28.4,30.09,West,270,6.0,8.0,30,0.00,,,0.00,meteohub,2013-04-06 20:53:00,
2013-04-06 13:58:00,60.3,28.8,30.10,West,270,4.0,8.0,30,0.00,,,0.00,meteohub,2013-04-06 20:58:00,
2013-04-06 14:03:00,59.7,28.9,30.10,West,270,7.0,8.0,31,0.00,,,0.00,meteohub,2013-04-06 21:03:00,
2013-04-06 14:08:00,59.0,27.7,30.09,WSW,248,4.0,8.0,30,0.00,,,0.00,meteohub,2013-04-06 21:08:00,
2013-04-06 14:13:00,58.6,28.0,30.09,West,270,2.0,8.0,31,0.00,,,0.00,meteohub,2013-04-06 21:13:00,
2013-04-06 14:18:00,59.2,28.6,30.09,West,270,6.0,7.0,31,0.00,,,0.00,meteohub,2013-04-06 21:18:00,
2013-04-06 14:23:00,59.9,29.1,30.09,West,270,2.0,6.0,31,0.00,,,0.00,meteohub,2013-04-06 21:23:00,
2013-04-06 14:28:00,59.9,28.4,30.09,West,270,4.0,6.0,30,0.00,,,0.00,meteohub,2013-04-06 21:28:00,
2013-04-06 14:33:00,59.4,28.8,30.09,SW,225,3.0,8.0,31,0.00,,,0.00,meteohub,2013-04-06 21:33:00,
2013-04-06 14:42:00,59.7,28.9,30.09,SW,225,3.0,9.0,31,0.00,,,0.00,meteohub,2013-04-06 21:42:00,
2013-04-06 14:47:00,59.5,28.9,30.09,SW,225,6.0,9.0,31,0.00,,,0.00,meteohub,2013-04-06 21:47:00,
2013-04-06 14:52:00,59.4,28.8,30.09,North,0,3.0,9.0,31,0.00,,,0.00,meteohub,2013-04-06 21:52:00,
2013-04-06 14:57:00,59.5,28.9,30.08,West,270,4.0,8.0,31,0.00,,,0.00,meteohub,2013-04-06 21:57:00,
2013-04-06 15:02:00,59.0,28.4,30.08,WNW,293,6.0,8.0,31,0.00,,,0.00,meteohub,2013-04-06 22:02:00,
2013-04-06 15:07:00,58.3,27.9,30.08,West,270,4.0,7.0,31,0.00,,,0.00,meteohub,2013-04-06 22:07:00,
2013-04-06 15:12:00,58.1,27.7,30.08,West,270,4.0,6.0,31,0.00,,,0.00,meteohub,2013-04-06 22:12:00,
2013-04-06 15:17:00,57.6,27.9,30.08,West,270,5.0,7.0,32,0.00,,,0.00,meteohub,2013-04-06 22:17:00,
2013-04-06 15:22:00,57.7,28.0,30.07,West,270,3.0,7.0,32,0.00,,,0.00,meteohub,2013-04-06 22:22:00,
2013-04-06 15:27:00,57.7,28.0,30.08,West,270,4.0,7.0,32,0.00,,,0.00,meteohub,2013-04-06 22:27:00,
2013-04-06 15:32:00,57.6,27.9,30.07,West,270,2.0,5.0,32,0.00,,,0.00,meteohub,2013-04-06 22:32:00,
2013-04-06 15:37:00,57.6,27.9,30.07,West,270,2.0,5.0,32,0.00,,,0.00,meteohub,2013-04-06 22:37:00,
2013-04-06 15:42:00,57.4,28.6,30.07,West,270,2.0,8.0,33,0.00,,,0.00,meteohub,2013-04-06 22:42:00,
2013-04-06 15:47:00,57.2,28.4,30.07,West,270,3.0,8.0,33,0.00,,,0.00,meteohub,2013-04-06 22:47:00,
2013-04-06 15:53:00,57.0,28.2,30.06,West,270,2.0,8.0,33,0.00,,,0.00,meteohub,2013-04-06 22:53:00,
2013-04-06 15:58:00,57.4,28.6,30.07,West,270,6.0,6.0,33,0.00,,,0.00,meteohub,2013-04-06 22:58:00,
2013-04-06 16:03:00,57.2,28.4,30.06,West,270,4.0,6.0,33,0.00,,,0.00,meteohub,2013-04-06 23:03:00,
2013-04-06 16:09:00,56.8,28.8,30.06,West,270,5.0,6.0,34,0.00,,,0.00,meteohub,2013-04-06 23:09:00,
2013-04-06 16:14:00,56.5,27.7,30.06,West,270,3.0,6.0,33,0.00,,,0.00,meteohub,2013-04-06 23:14:00,
2013-04-06 16:19:00,55.8,27.9,30.07,West,270,4.0,6.0,34,0.00,,,0.00,meteohub,2013-04-06 23:19:00,
2013-04-06 16:24:00,55.9,28.0,30.07,West,270,4.0,8.0,34,0.00,,,0.00,meteohub,2013-04-06 23:24:00,
2013-04-06 16:29:00,55.8,28.6,30.07,West,270,6.0,10.0,35,0.00,,,0.00,meteohub,2013-04-06 23:29:00,
2013-04-06 16:34:00,55.4,28.2,30.07,West,270,3.0,11.0,35,0.00,,,0.00,meteohub,2013-04-06 23:34:00,
2013-04-06 16:39:00,55.2,28.0,30.07,West,270,4.0,11.0,35,0.00,,,0.00,meteohub,2013-04-06 23:39:00,
2013-04-06 16:44:00,55.2,28.0,30.07,West,270,4.0,10.0,35,0.00,,,0.00,meteohub,2013-04-06 23:44:00,
2013-04-06 16:49:00,55.4,28.9,30.07,West,270,4.0,8.0,36,0.00,,,0.00,meteohub,2013-04-06 23:49:00,
2013-04-06 16:55:00,55.4,28.9,30.07,West,270,4.0,8.0,36,0.00,,,0.00,meteohub,2013-04-06 23:55:00,
2013-04-06 17:00:00,55.0,28.6,30.07,West,270,8.0,8.0,36,0.00,,,0.00,meteohub,2013-04-07 00:00:00,
2013-04-06 17:07:00,54.9,29.1,30.08,West,270,7.0,8.0,37,0.00,,,0.00,meteohub,2013-04-07 00:07:00,
2013-04-06 17:12:00,55.0,29.3,30.08,West,270,8.0,8.0,37,0.00,,,0.00,meteohub,2013-04-07 00:12:00,
2013-04-06 17:17:00,54.7,28.9,30.07,West,270,3.0,8.0,37,0.00,,,0.00,meteohub,2013-04-07 00:17:00,
2013-04-06 17:22:00,54.7,28.9,30.07,NE,45,3.0,8.0,37,0.00,,,0.00,meteohub,2013-04-07 00:22:00,
2013-04-06 17:27:00,54.7,28.9,30.07,West,270,3.0,8.0,37,0.00,,,0.00,meteohub,2013-04-07 00:27:00,
2013-04-06 17:32:00,54.7,29.5,30.07,SW,225,2.0,8.0,38,0.00,,,0.00,meteohub,2013-04-07 00:32:00,
2013-04-06 17:37:00,54.5,29.5,30.07,South,180,4.0,5.0,38,0.00,,,0.00,meteohub,2013-04-07 00:37:00,
2013-04-06 17:43:00,54.5,29.5,30.06,West,270,2.0,5.0,38,0.00,,,0.00,meteohub,2013-04-07 00:43:00,
2013-04-06 17:48:00,54.1,29.7,30.06,NE,45,2.0,5.0,39,0.00,,,0.00,meteohub,2013-04-07 00:48:00,
2013-04-06 17:53:00,54.1,29.7,30.06,West,270,5.0,5.0,39,0.00,,,0.00,meteohub,2013-04-07 00:53:00,
2013-04-06 17:58:00,54.1,29.7,30.06,West,270,2.0,5.0,39,0.00,,,0.00,meteohub,2013-04-07 00:58:00,
2013-04-06 18:03:00,54.0,29.5,30.06,West,270,3.0,5.0,39,0.00,,,0.00,meteohub,2013-04-07 01:03:00,
2013-04-06 18:09:00,53.8,30.0,30.06,West,270,2.0,5.0,40,0.00,,,0.00,meteohub,2013-04-07 01:09:00,
2013-04-06 18:14:00,53.6,30.4,30.06,West,270,2.0,5.0,41,0.00,,,0.00,meteohub,2013-04-07 01:14:00,
2013-04-06 18:19:00,53.4,30.9,30.06,West,270,4.0,5.0,42,0.00,,,0.00,meteohub,2013-04-07 01:19:00,
2013-04-06 18:24:00,53.1,30.6,30.06,West,270,5.0,5.0,42,0.00,,,0.00,meteohub,2013-04-07 01:24:00,
2013-04-06 18:29:00,52.9,30.9,30.06,West,270,2.0,5.0,43,0.00,,,0.00,meteohub,2013-04-07 01:29:00,
2013-04-06 18:34:00,52.7,30.7,30.06,West,270,4.0,5.0,43,0.00,,,0.00,meteohub,2013-04-07 01:34:00,
2013-04-06 18:39:00,52.3,31.1,30.06,West,270,2.0,5.0,44,0.00,,,0.00,meteohub,2013-04-07 01:39:00,
2013-04-06 18:44:00,52.2,31.5,30.06,West,270,2.0,4.0,45,0.00,,,0.00,meteohub,2013-04-07 01:44:00,
2013-04-06 18:49:00,52.0,31.3,30.06,West,270,2.0,4.0,45,0.00,,,0.00,meteohub,2013-04-07 01:49:00,
2013-04-06 18:54:00,51.6,31.5,30.06,West,270,2.0,3.0,46,0.00,,,0.00,meteohub,2013-04-07 01:54:00,
2013-04-06 18:59:00,51.3,31.6,30.07,West,270,2.0,2.0,47,0.00,,,0.00,meteohub,2013-04-07 01:59:00,
2013-04-06 19:05:00,50.9,31.8,30.07,West,270,1.0,2.0,48,0.00,,,0.00,meteohub,2013-04-07 02:05:00,
2013-04-06 19:10:00,50.5,32.0,30.07,West,270,2.0,2.0,49,0.00,,,0.00,meteohub,2013-04-07 02:10:00,
2013-04-06 19:15:00,50.2,32.7,30.06,South,180,2.0,3.0,51,0.00,,,0.00,meteohub,2013-04-07 02:15:00,
2013-04-06 19:20:00,49.8,32.9,30.06,South,180,1.0,3.0,52,0.00,,,0.00,meteohub,2013-04-07 02:20:00,
2013-04-06 19:25:00,49.1,32.7,30.06,South,180,1.0,3.0,53,0.00,,,0.00,meteohub,2013-04-07 02:25:00,
2013-04-06 19:30:00,48.6,33.1,30.06,South,180,2.0,2.0,55,0.00,,,0.00,meteohub,2013-04-07 02:30:00,
2013-04-06 19:35:00,48.0,33.4,30.06,South,180,2.0,2.0,57,0.00,,,0.00,meteohub,2013-04-07 02:35:00,
2013-04-06 19:40:00,47.5,33.1,30.06,South,180,1.0,2.0,57,0.00,,,0.00,meteohub,2013-04-07 02:40:00,
2013-04-06 19:45:00,46.9,32.5,30.06,South,180,0.0,2.0,57,0.00,,,0.00,meteohub,2013-04-07 02:45:00,
2013-04-06 19:50:00,46.6,32.5,30.06,South,180,1.0,2.0,58,0.00,,,0.00,meteohub,2013-04-07 02:50:00,
2013-04-06 19:55:00,46.0,32.5,30.06,South,180,2.0,2.0,59,0.00,,,0.00,meteohub,2013-04-07 02:55:00,
2013-04-06 20:00:00,45.7,32.2,30.06,SE,135,2.0,2.0,59,0.00,,,0.00,meteohub,2013-04-07 03:00:00,
2013-04-06 20:05:00,45.5,32.0,30.07,SE,135,1.0,2.0,59,0.00,,,0.00,meteohub,2013-04-07 03:05:00,
2013-04-06 20:10:00,45.1,31.6,30.07,SE,135,1.0,2.0,59,0.00,,,0.00,meteohub,2013-04-07 03:10:00,
2013-04-06 20:15:00,44.6,31.1,30.07,SW,225,0.0,3.0,59,0.00,,,0.00,meteohub,2013-04-07 03:15:00,
2013-04-06 20:21:00,44.1,30.7,30.06,SW,225,2.0,3.0,59,0.00,,,0.00,meteohub,2013-04-07 03:21:00,
2013-04-06 20:26:00,43.2,30.2,30.07,SW,225,2.0,3.0,60,0.00,,,0.00,meteohub,2013-04-07 03:26:00,
2013-04-06 20:31:00,42.6,30.2,30.07,SW,225,2.0,2.0,61,0.00,,,0.00,meteohub,2013-04-07 03:31:00,
2013-04-06 20:36:00,42.4,30.0,30.07,SW,225,2.0,2.0,61,0.00,,,0.00,meteohub,2013-04-07 03:36:00,
2013-04-06 20:41:00,42.4,29.5,30.07,SW,225,3.0,3.0,60,0.00,,,0.00,meteohub,2013-04-07 03:41:00,
2013-04-06 20:46:00,41.7,28.0,30.07,SW,225,2.0,3.0,58,0.00,,,0.00,meteohub,2013-04-07 03:46:00,
2013-04-06 20:51:00,41.5,27.9,30.08,SW,225,2.0,3.0,58,0.00,,,0.00,meteohub,2013-04-07 03:51:00,
2013-04-06 20:56:00,41.5,27.0,30.08,SW,225,2.0,3.0,56,0.00,,,0.00,meteohub,2013-04-07 03:56:00,
2013-04-06 21:00:00,41.7,26.8,30.07,SW,225,2.0,3.0,55,0.00,,,0.00,meteohub,2013-04-07 04:00:00,
2013-04-06 21:01:00,41.7,27.1,30.08,SW,225,2.0,3.0,56,0.00,,,0.00,meteohub,2013-04-07 04:01:00,
2013-04-06 21:06:00,41.7,26.2,30.08,SW,225,2.0,3.0,54,0.00,,,0.00,meteohub,2013-04-07 04:06:00,
2013-04-06 21:12:00,41.4,25.9,30.09,SE,135,2.0,3.0,54,0.00,,,0.00,meteohub,2013-04-07 04:12:00,
2013-04-06 21:17:00,41.2,25.9,30.09,SE,135,3.0,3.0,54,0.00,,,0.00,meteohub,2013-04-07 04:17:00,
2013-04-06 21:22:00,40.8,25.9,30.08,SE,135,1.0,3.0,55,0.00,,,0.00,meteohub,2013-04-07 04:22:00,
2013-04-06 21:27:00,41.0,26.1,30.08,SE,135,2.0,3.0,55,0.00,,,0.00,meteohub,2013-04-07 04:27:00,
2013-04-06 21:32:00,41.0,26.1,30.09,SE,135,1.0,3.0,55,0.00,,,0.00,meteohub,2013-04-07 04:32:00,
2013-04-06 21:37:00,40.8,25.9,30.08,SE,135,2.0,2.0,55,0.00,,,0.00,meteohub,2013-04-07 04:37:00,
2013-04-06 21:42:00,40.8,25.9,30.08,SE,135,1.0,2.0,55,0.00,,,0.00,meteohub,2013-04-07 04:42:00,
2013-04-06 21:47:00,40.5,25.5,30.08,NE,45,2.0,3.0,55,0.00,,,0.00,meteohub,2013-04-07 04:47:00,
2013-04-06 21:52:00,40.3,25.3,30.08,South,180,2.0,3.0,55,0.00,,,0.00,meteohub,2013-04-07 04:52:00,
2013-04-06 21:57:00,40.3,25.3,30.08,East,90,2.0,3.0,55,0.00,,,0.00,meteohub,2013-04-07 04:57:00,
2013-04-06 22:02:00,39.9,25.0,30.08,South,180,2.0,3.0,55,0.00,,,0.00,meteohub,2013-04-07 05:02:00,
2013-04-06 22:07:00,39.7,24.4,30.08,South,180,2.0,3.0,54,0.00,,,0.00,meteohub,2013-04-07 05:07:00,
2013-04-06 22:12:00,39.6,24.3,30.08,South,180,1.0,2.0,54,0.00,,,0.00,meteohub,2013-04-07 05:12:00,
2013-04-06 22:17:00,39.4,24.1,30.08,NE,45,1.0,2.0,54,0.00,,,0.00,meteohub,2013-04-07 05:17:00,
2013-04-06 22:22:00,39.4,23.7,30.07,NE,45,1.0,3.0,53,0.00,,,0.00,meteohub,2013-04-07 05:22:00,
2013-04-06 22:27:00,39.2,23.5,30.08,ENE,68,2.0,3.0,53,0.00,,,0.00,meteohub,2013-04-07 05:27:00,
2013-04-06 22:33:00,39.0,23.4,30.07,South,180,2.0,2.0,53,0.00,,,0.00,meteohub,2013-04-07 05:33:00,
2013-04-06 22:38:00,39.0,22.8,30.07,SE,135,2.0,2.0,52,0.00,,,0.00,meteohub,2013-04-07 05:38:00,
2013-04-06 22:43:00,38.3,21.7,30.08,North,0,2.0,3.0,51,0.00,,,0.00,meteohub,2013-04-07 05:43:00,
2013-04-06 22:48:00,38.3,21.7,30.08,SE,135,2.0,5.0,51,0.00,,,0.00,meteohub,2013-04-07 05:48:00,
2013-04-06 22:53:00,38.5,21.4,30.08,SE,135,2.0,5.0,50,0.00,,,0.00,meteohub,2013-04-07 05:53:00,
2013-04-06 22:58:00,38.8,21.4,30.08,SW,225,4.0,5.0,49,0.00,,,0.00,meteohub,2013-04-07 05:58:00,
2013-04-06 23:03:00,39.0,21.0,30.07,East,90,2.0,4.0,48,0.00,,,0.00,meteohub,2013-04-07 06:03:00,
2013-04-06 23:08:00,39.0,21.0,30.08,SE,135,2.0,4.0,48,0.00,,,0.00,meteohub,2013-04-07 06:08:00,
2013-04-06 23:13:00,38.8,21.4,30.08,East,90,1.0,4.0,49,0.00,,,0.00,meteohub,2013-04-07 06:13:00,
2013-04-06 23:18:00,38.8,20.3,30.08,South,180,2.0,2.0,47,0.00,,,0.00,meteohub,2013-04-07 06:18:00,
2013-04-06 23:23:00,38.8,20.3,30.08,South,180,2.0,3.0,47,0.00,,,0.00,meteohub,2013-04-07 06:23:00,
2013-04-06 23:28:00,39.0,20.5,30.08,South,180,2.0,3.0,47,0.00,,,0.00,meteohub,2013-04-07 06:28:00,
2013-04-06 23:33:00,39.0,20.5,30.09,South,180,0.0,3.0,47,0.00,,,0.00,meteohub,2013-04-07 06:33:00,
2013-04-06 23:38:00,38.8,20.3,30.08,South,180,1.0,2.0,47,0.00,,,0.00,meteohub,2013-04-07 06:38:00,
2013-04-06 23:43:00,38.3,20.3,30.09,South,180,2.0,2.0,48,0.00,,,0.00,meteohub,2013-04-07 06:43:00,
2013-04-06 23:48:00,37.9,19.9,30.09,South,180,1.0,3.0,48,0.00,,,0.00,meteohub,2013-04-07 06:48:00,
2013-04-06 23:53:00,37.9,19.6,30.08,South,180,2.0,3.0,47,0.00,,,0.00,meteohub,2013-04-07 06:53:00,
2013-04-06 23:58:00,37.9,19.6,30.09,SE,135,2.0,3.0,47,0.00,,,0.00,meteohub,2013-04-07 06:58:00,